sensor_id;sensor_type;location;lat;lon;timestamp;P1;durP1;ratioP1;P2;durP2;ratioP2
34814;SDS011;21030;53.912;15.214;2022-07-01T00:00:06;3.50;;;2.22;;
34814;SDS011;21030;53.912;15.214;2022-07-01T00:02:33;5.07;;;2.47;;
34814;SDS011;21030;53.912;15.214;2022-07-01T00:05:01;2.63;;;1.50;;
34814;SDS011;21030;53.912;15.214;2022-07-01T00:07:28;4.45;;;2.05;;
34814;SDS011;21030;53.912;15.214;2022-07-01T00:09:55;4.25;;;1.15;;
34814;SDS011;21030;53.912;15.214;2022-07-01T00:12:22;1.85;;;1.13;;
34814;SDS011;21030;53.912;15.214;2022-07-01T00:14:49;4.15;;;1.83;;
34814;SDS011;21030;53.912;15.214;2022-07-01T00:17:16;2.75;;;1.45;;
34814;SDS011;21030;53.912;15.214;2022-07-01T00:19:43;3.08;;;1.92;;
34814;SDS011;21030;53.912;15.214;2022-07-01T00:22:10;1.40;;;0.90;;
34814;SDS011;21030;53.912;15.214;2022-07-01T00:24:37;4.43;;;2.20;;
34814;SDS011;21030;53.912;15.214;2022-07-01T00:27:05;1.60;;;1.17;;
34814;SDS011;21030;53.912;15.214;2022-07-01T00:29:31;2.45;;;1.10;;
34814;SDS011;21030;53.912;15.214;2022-07-01T00:32:02;1.55;;;0.80;;
34814;SDS011;21030;53.912;15.214;2022-07-01T00:34:30;1.77;;;1.05;;
34814;SDS011;21030;53.912;15.214;2022-07-01T00:36:57;2.00;;;1.10;;
34814;SDS011;21030;53.912;15.214;2022-07-01T00:39:24;1.45;;;1.00;;
34814;SDS011;21030;53.912;15.214;2022-07-01T00:41:51;3.60;;;1.50;;
34814;SDS011;21030;53.912;15.214;2022-07-01T00:44:21;3.88;;;1.95;;
34814;SDS011;21030;53.912;15.214;2022-07-01T00:46:49;3.60;;;2.05;;
34814;SDS011;21030;53.912;15.214;2022-07-01T00:49:17;3.00;;;1.80;;
34814;SDS011;21030;53.912;15.214;2022-07-01T00:51:45;2.97;;;1.27;;
34814;SDS011;21030;53.912;15.214;2022-07-01T00:54:12;2.38;;;1.52;;
34814;SDS011;21030;53.912;15.214;2022-07-01T00:56:40;5.18;;;2.28;;
34814;SDS011;21030;53.912;15.214;2022-07-01T00:59:07;2.75;;;1.58;;
34814;SDS011;21030;53.912;15.214;2022-07-01T01:01:34;2.95;;;1.27;;
34814;SDS011;21030;53.912;15.214;2022-07-01T01:04:01;2.78;;;1.52;;
34814;SDS011;21030;53.912;15.214;2022-07-01T01:06:29;3.05;;;1.60;;
34814;SDS011;21030;53.912;15.214;2022-07-01T01:08:56;2.88;;;1.20;;
34814;SDS011;21030;53.912;15.214;2022-07-01T01:11:23;2.35;;;1.48;;
34814;SDS011;21030;53.912;15.214;2022-07-01T01:13:51;2.25;;;1.52;;
34814;SDS011;21030;53.912;15.214;2022-07-01T01:16:21;2.28;;;1.90;;
34814;SDS011;21030;53.912;15.214;2022-07-01T01:18:49;2.88;;;1.48;;
34814;SDS011;21030;53.912;15.214;2022-07-01T01:21:17;1.90;;;1.27;;
34814;SDS011;21030;53.912;15.214;2022-07-01T01:23:45;1.88;;;1.63;;
34814;SDS011;21030;53.912;15.214;2022-07-01T01:26:18;2.42;;;1.38;;
34814;SDS011;21030;53.912;15.214;2022-07-01T01:28:47;3.38;;;1.85;;
34814;SDS011;21030;53.912;15.214;2022-07-01T01:31:15;4.75;;;0.82;;
34814;SDS011;21030;53.912;15.214;2022-07-01T01:33:43;3.20;;;1.52;;
34814;SDS011;21030;53.912;15.214;2022-07-01T01:36:11;3.17;;;2.08;;
34814;SDS011;21030;53.912;15.214;2022-07-01T01:38:38;5.20;;;2.15;;
34814;SDS011;21030;53.912;15.214;2022-07-01T01:41:05;2.42;;;1.17;;
34814;SDS011;21030;53.912;15.214;2022-07-01T01:43:32;2.03;;;1.60;;
34814;SDS011;21030;53.912;15.214;2022-07-01T01:46:01;2.60;;;1.58;;
34814;SDS011;21030;53.912;15.214;2022-07-01T01:48:29;1.65;;;0.90;;
34814;SDS011;21030;53.912;15.214;2022-07-01T01:50:57;4.18;;;1.80;;
34814;SDS011;21030;53.912;15.214;2022-07-01T01:53:24;1.58;;;0.93;;
34814;SDS011;21030;53.912;15.214;2022-07-01T01:55:52;3.85;;;1.92;;
34814;SDS011;21030;53.912;15.214;2022-07-01T01:58:19;1.50;;;1.05;;
34814;SDS011;21030;53.912;15.214;2022-07-01T02:00:46;14.43;;;1.65;;
34814;SDS011;21030;53.912;15.214;2022-07-01T02:03:13;1.52;;;0.93;;
34814;SDS011;21030;53.912;15.214;2022-07-01T02:05:41;2.25;;;1.73;;
34814;SDS011;21030;53.912;15.214;2022-07-01T02:08:12;2.22;;;1.67;;
34814;SDS011;21030;53.912;15.214;2022-07-01T02:10:39;1.52;;;0.82;;
34814;SDS011;21030;53.912;15.214;2022-07-01T02:13:09;1.30;;;1.02;;
34814;SDS011;21030;53.912;15.214;2022-07-01T02:15:36;1.97;;;0.93;;
34814;SDS011;21030;53.912;15.214;2022-07-01T02:18:04;0.93;;;0.57;;
34814;SDS011;21030;53.912;15.214;2022-07-01T02:20:32;1.45;;;0.98;;
34814;SDS011;21030;53.912;15.214;2022-07-01T02:23:00;1.83;;;1.00;;
34814;SDS011;21030;53.912;15.214;2022-07-01T02:25:27;2.25;;;1.35;;
34814;SDS011;21030;53.912;15.214;2022-07-01T02:27:54;2.80;;;0.88;;
34814;SDS011;21030;53.912;15.214;2022-07-01T02:30:21;1.95;;;0.70;;
34814;SDS011;21030;53.912;15.214;2022-07-01T02:32:48;3.40;;;1.27;;
34814;SDS011;21030;53.912;15.214;2022-07-01T02:35:15;0.80;;;0.73;;
34814;SDS011;21030;53.912;15.214;2022-07-01T02:37:42;0.95;;;0.70;;
34814;SDS011;21030;53.912;15.214;2022-07-01T02:40:09;1.75;;;1.15;;
34814;SDS011;21030;53.912;15.214;2022-07-01T02:42:38;1.30;;;0.98;;
34814;SDS011;21030;53.912;15.214;2022-07-01T02:45:05;4.78;;;1.92;;
34814;SDS011;21030;53.912;15.214;2022-07-01T02:47:35;2.00;;;0.70;;
34814;SDS011;21030;53.912;15.214;2022-07-01T02:50:07;1.30;;;0.77;;
34814;SDS011;21030;53.912;15.214;2022-07-01T02:52:36;1.40;;;0.85;;
34814;SDS011;21030;53.912;15.214;2022-07-01T02:55:06;1.48;;;0.68;;
34814;SDS011;21030;53.912;15.214;2022-07-01T02:57:37;2.13;;;1.33;;
34814;SDS011;21030;53.912;15.214;2022-07-01T03:00:06;1.30;;;0.85;;
34814;SDS011;21030;53.912;15.214;2022-07-01T03:02:35;0.93;;;0.57;;
34814;SDS011;21030;53.912;15.214;2022-07-01T03:05:02;1.92;;;1.02;;
34814;SDS011;21030;53.912;15.214;2022-07-01T03:07:30;2.33;;;1.05;;
34814;SDS011;21030;53.912;15.214;2022-07-01T03:09:57;1.20;;;1.00;;
34814;SDS011;21030;53.912;15.214;2022-07-01T03:12:25;7.88;;;1.15;;
34814;SDS011;21030;53.912;15.214;2022-07-01T03:14:52;1.05;;;0.70;;
34814;SDS011;21030;53.912;15.214;2022-07-01T03:17:28;4.72;;;1.75;;
34814;SDS011;21030;53.912;15.214;2022-07-01T03:20:04;1.02;;;0.93;;
34814;SDS011;21030;53.912;15.214;2022-07-01T03:22:36;0.88;;;0.52;;
34814;SDS011;21030;53.912;15.214;2022-07-01T03:25:04;2.47;;;1.20;;
34814;SDS011;21030;53.912;15.214;2022-07-01T03:27:32;1.77;;;1.30;;
34814;SDS011;21030;53.912;15.214;2022-07-01T03:30:00;1.58;;;0.95;;
34814;SDS011;21030;53.912;15.214;2022-07-01T03:32:28;1.45;;;1.20;;
34814;SDS011;21030;53.912;15.214;2022-07-01T03:34:55;2.20;;;1.50;;
34814;SDS011;21030;53.912;15.214;2022-07-01T03:37:22;1.27;;;0.95;;
34814;SDS011;21030;53.912;15.214;2022-07-01T03:39:50;0.73;;;0.57;;
34814;SDS011;21030;53.912;15.214;2022-07-01T03:42:19;1.60;;;0.80;;
34814;SDS011;21030;53.912;15.214;2022-07-01T03:44:46;1.58;;;0.65;;
34814;SDS011;21030;53.912;15.214;2022-07-01T03:47:13;1.48;;;0.75;;
34814;SDS011;21030;53.912;15.214;2022-07-01T03:49:40;1.35;;;1.00;;
34814;SDS011;21030;53.912;15.214;2022-07-01T03:52:08;2.00;;;1.13;;
34814;SDS011;21030;53.912;15.214;2022-07-01T03:54:35;1.20;;;0.95;;
34814;SDS011;21030;53.912;15.214;2022-07-01T03:57:08;1.55;;;1.10;;
34814;SDS011;21030;53.912;15.214;2022-07-01T03:59:36;0.57;;;0.57;;
34814;SDS011;21030;53.912;15.214;2022-07-01T04:02:05;0.75;;;0.68;;
34814;SDS011;21030;53.912;15.214;2022-07-01T04:04:32;1.65;;;0.95;;
34814;SDS011;21030;53.912;15.214;2022-07-01T04:07:01;1.08;;;0.38;;
34814;SDS011;21030;53.912;15.214;2022-07-01T04:09:30;0.90;;;0.52;;
34814;SDS011;21030;53.912;15.214;2022-07-01T04:11:58;1.63;;;0.68;;
34814;SDS011;21030;53.912;15.214;2022-07-01T04:14:25;1.98;;;0.90;;
34814;SDS011;21030;53.912;15.214;2022-07-01T04:16:52;2.30;;;0.95;;
34814;SDS011;21030;53.912;15.214;2022-07-01T04:19:19;1.08;;;0.80;;
34814;SDS011;21030;53.912;15.214;2022-07-01T04:21:47;0.90;;;0.70;;
34814;SDS011;21030;53.912;15.214;2022-07-01T04:24:33;1.95;;;1.42;;
34814;SDS011;21030;53.912;15.214;2022-07-01T04:27:01;2.40;;;1.05;;
34814;SDS011;21030;53.912;15.214;2022-07-01T04:29:28;2.33;;;1.45;;
34814;SDS011;21030;53.912;15.214;2022-07-01T04:31:58;0.75;;;0.50;;
34814;SDS011;21030;53.912;15.214;2022-07-01T04:34:25;1.40;;;0.93;;
34814;SDS011;21030;53.912;15.214;2022-07-01T04:36:52;0.73;;;0.73;;
34814;SDS011;21030;53.912;15.214;2022-07-01T04:39:19;1.50;;;1.08;;
34814;SDS011;21030;53.912;15.214;2022-07-01T04:41:46;1.65;;;1.15;;
34814;SDS011;21030;53.912;15.214;2022-07-01T04:44:26;1.13;;;0.65;;
34814;SDS011;21030;53.912;15.214;2022-07-01T04:47:08;2.65;;;0.68;;
34814;SDS011;21030;53.912;15.214;2022-07-01T04:49:35;1.75;;;0.95;;
34814;SDS011;21030;53.912;15.214;2022-07-01T04:52:03;2.15;;;1.33;;
34814;SDS011;21030;53.912;15.214;2022-07-01T04:54:30;2.10;;;1.17;;
34814;SDS011;21030;53.912;15.214;2022-07-01T04:56:57;2.13;;;1.13;;
34814;SDS011;21030;53.912;15.214;2022-07-01T04:59:24;0.65;;;0.60;;
34814;SDS011;21030;53.912;15.214;2022-07-01T05:01:51;1.33;;;0.85;;
34814;SDS011;21030;53.912;15.214;2022-07-01T05:04:18;2.60;;;1.42;;
34814;SDS011;21030;53.912;15.214;2022-07-01T05:06:46;2.03;;;1.25;;
34814;SDS011;21030;53.912;15.214;2022-07-01T05:09:13;1.98;;;1.23;;
34814;SDS011;21030;53.912;15.214;2022-07-01T05:11:40;1.95;;;1.73;;
34814;SDS011;21030;53.912;15.214;2022-07-01T05:14:07;1.55;;;0.73;;
34814;SDS011;21030;53.912;15.214;2022-07-01T05:16:35;2.08;;;1.40;;
34814;SDS011;21030;53.912;15.214;2022-07-01T05:19:03;2.20;;;1.08;;
34814;SDS011;21030;53.912;15.214;2022-07-01T05:21:48;1.88;;;1.15;;
34814;SDS011;21030;53.912;15.214;2022-07-01T05:24:27;1.38;;;0.80;;
34814;SDS011;21030;53.912;15.214;2022-07-01T05:26:57;1.42;;;1.20;;
34814;SDS011;21030;53.912;15.214;2022-07-01T05:29:25;2.40;;;0.98;;
34814;SDS011;21030;53.912;15.214;2022-07-01T05:31:52;2.53;;;1.08;;
34814;SDS011;21030;53.912;15.214;2022-07-01T05:34:20;1.77;;;1.13;;
34814;SDS011;21030;53.912;15.214;2022-07-01T05:36:47;1.13;;;1.00;;
34814;SDS011;21030;53.912;15.214;2022-07-01T05:39:14;1.58;;;0.77;;
34814;SDS011;21030;53.912;15.214;2022-07-01T05:41:42;1.08;;;0.98;;
34814;SDS011;21030;53.912;15.214;2022-07-01T05:44:09;2.97;;;1.25;;
34814;SDS011;21030;53.912;15.214;2022-07-01T05:46:36;3.30;;;1.45;;
34814;SDS011;21030;53.912;15.214;2022-07-01T05:49:03;1.33;;;0.90;;
34814;SDS011;21030;53.912;15.214;2022-07-01T05:51:30;2.67;;;1.50;;
34814;SDS011;21030;53.912;15.214;2022-07-01T05:54:05;3.38;;;1.58;;
34814;SDS011;21030;53.912;15.214;2022-07-01T05:56:32;2.97;;;1.42;;
34814;SDS011;21030;53.912;15.214;2022-07-01T05:58:59;2.70;;;1.25;;
34814;SDS011;21030;53.912;15.214;2022-07-01T06:01:26;3.03;;;1.83;;
34814;SDS011;21030;53.912;15.214;2022-07-01T06:03:54;6.80;;;2.05;;
34814;SDS011;21030;53.912;15.214;2022-07-01T06:06:21;4.45;;;1.90;;
34814;SDS011;21030;53.912;15.214;2022-07-01T06:08:48;2.72;;;1.42;;
34814;SDS011;21030;53.912;15.214;2022-07-01T06:11:16;2.92;;;1.60;;
34814;SDS011;21030;53.912;15.214;2022-07-01T06:13:43;4.10;;;1.75;;
34814;SDS011;21030;53.912;15.214;2022-07-01T06:16:10;2.70;;;1.73;;
34814;SDS011;21030;53.912;15.214;2022-07-01T06:18:37;4.28;;;2.15;;
34814;SDS011;21030;53.912;15.214;2022-07-01T06:21:04;1.95;;;1.02;;
34814;SDS011;21030;53.912;15.214;2022-07-01T06:23:32;5.82;;;2.95;;
34814;SDS011;21030;53.912;15.214;2022-07-01T06:25:59;3.47;;;1.88;;
34814;SDS011;21030;53.912;15.214;2022-07-01T06:28:26;3.42;;;1.98;;
34814;SDS011;21030;53.912;15.214;2022-07-01T06:30:56;2.92;;;1.83;;
34814;SDS011;21030;53.912;15.214;2022-07-01T06:33:24;3.00;;;1.67;;
34814;SDS011;21030;53.912;15.214;2022-07-01T06:35:53;7.90;;;2.15;;
34814;SDS011;21030;53.912;15.214;2022-07-01T06:38:20;2.33;;;1.77;;
34814;SDS011;21030;53.912;15.214;2022-07-01T06:40:47;5.97;;;2.85;;
34814;SDS011;21030;53.912;15.214;2022-07-01T06:43:35;3.92;;;1.98;;
34814;SDS011;21030;53.912;15.214;2022-07-01T06:46:02;4.32;;;2.17;;
34814;SDS011;21030;53.912;15.214;2022-07-01T06:48:30;3.28;;;2.05;;
34814;SDS011;21030;53.912;15.214;2022-07-01T06:50:57;3.97;;;2.33;;
34814;SDS011;21030;53.912;15.214;2022-07-01T06:53:24;7.35;;;3.58;;
34814;SDS011;21030;53.912;15.214;2022-07-01T06:55:51;6.35;;;3.17;;
34814;SDS011;21030;53.912;15.214;2022-07-01T06:58:19;3.75;;;2.05;;
34814;SDS011;21030;53.912;15.214;2022-07-01T07:00:46;3.42;;;1.80;;
34814;SDS011;21030;53.912;15.214;2022-07-01T07:03:13;3.17;;;2.17;;
34814;SDS011;21030;53.912;15.214;2022-07-01T07:05:40;2.92;;;2.10;;
34814;SDS011;21030;53.912;15.214;2022-07-01T07:08:07;3.83;;;2.30;;
34814;SDS011;21030;53.912;15.214;2022-07-01T07:10:34;3.80;;;1.88;;
34814;SDS011;21030;53.912;15.214;2022-07-01T07:13:01;3.72;;;2.28;;
34814;SDS011;21030;53.912;15.214;2022-07-01T07:15:29;3.72;;;2.42;;
34814;SDS011;21030;53.912;15.214;2022-07-01T07:17:56;4.90;;;1.88;;
34814;SDS011;21030;53.912;15.214;2022-07-01T07:20:24;3.20;;;2.22;;
34814;SDS011;21030;53.912;15.214;2022-07-01T07:22:51;3.58;;;2.47;;
34814;SDS011;21030;53.912;15.214;2022-07-01T07:25:19;4.93;;;2.53;;
34814;SDS011;21030;53.912;15.214;2022-07-01T07:27:46;4.60;;;2.03;;
34814;SDS011;21030;53.912;15.214;2022-07-01T07:30:13;2.47;;;1.52;;
34814;SDS011;21030;53.912;15.214;2022-07-01T07:32:41;3.10;;;1.90;;
34814;SDS011;21030;53.912;15.214;2022-07-01T07:35:08;10.55;;;2.85;;
34814;SDS011;21030;53.912;15.214;2022-07-01T07:37:36;3.88;;;2.42;;
34814;SDS011;21030;53.912;15.214;2022-07-01T07:40:03;4.75;;;2.20;;
34814;SDS011;21030;53.912;15.214;2022-07-01T07:42:32;5.07;;;2.80;;
34814;SDS011;21030;53.912;15.214;2022-07-01T07:45:00;3.13;;;1.70;;
34814;SDS011;21030;53.912;15.214;2022-07-01T07:47:27;3.97;;;2.08;;
34814;SDS011;21030;53.912;15.214;2022-07-01T07:49:55;3.40;;;2.33;;
34814;SDS011;21030;53.912;15.214;2022-07-01T07:52:22;4.28;;;2.20;;
34814;SDS011;21030;53.912;15.214;2022-07-01T07:54:49;3.05;;;2.05;;
34814;SDS011;21030;53.912;15.214;2022-07-01T07:57:16;4.75;;;2.83;;
34814;SDS011;21030;53.912;15.214;2022-07-01T07:59:43;3.42;;;2.15;;
34814;SDS011;21030;53.912;15.214;2022-07-01T08:02:11;4.30;;;2.28;;
34814;SDS011;21030;53.912;15.214;2022-07-01T08:04:38;4.20;;;2.70;;
34814;SDS011;21030;53.912;15.214;2022-07-01T08:07:06;11.18;;;3.55;;
34814;SDS011;21030;53.912;15.214;2022-07-01T08:09:33;4.82;;;2.40;;
34814;SDS011;21030;53.912;15.214;2022-07-01T08:12:01;6.32;;;2.90;;
34814;SDS011;21030;53.912;15.214;2022-07-01T08:14:29;4.03;;;2.38;;
34814;SDS011;21030;53.912;15.214;2022-07-01T08:16:57;4.95;;;2.83;;
34814;SDS011;21030;53.912;15.214;2022-07-01T08:19:24;3.15;;;2.03;;
34814;SDS011;21030;53.912;15.214;2022-07-01T08:21:51;3.17;;;1.95;;
34814;SDS011;21030;53.912;15.214;2022-07-01T08:24:18;4.07;;;2.88;;
34814;SDS011;21030;53.912;15.214;2022-07-01T08:26:45;6.03;;;2.78;;
34814;SDS011;21030;53.912;15.214;2022-07-01T08:29:12;3.60;;;2.88;;
34814;SDS011;21030;53.912;15.214;2022-07-01T08:31:39;6.93;;;3.25;;
34814;SDS011;21030;53.912;15.214;2022-07-01T08:34:06;3.80;;;2.25;;
34814;SDS011;21030;53.912;15.214;2022-07-01T08:36:35;3.05;;;2.33;;
34814;SDS011;21030;53.912;15.214;2022-07-01T08:39:03;4.50;;;2.50;;
34814;SDS011;21030;53.912;15.214;2022-07-01T08:41:44;4.78;;;3.03;;
34814;SDS011;21030;53.912;15.214;2022-07-01T08:44:11;4.00;;;2.72;;
34814;SDS011;21030;53.912;15.214;2022-07-01T08:46:38;3.97;;;2.13;;
34814;SDS011;21030;53.912;15.214;2022-07-01T08:49:06;9.50;;;2.90;;
34814;SDS011;21030;53.912;15.214;2022-07-01T08:51:33;4.88;;;3.28;;
34814;SDS011;21030;53.912;15.214;2022-07-01T08:54:01;5.35;;;2.75;;
34814;SDS011;21030;53.912;15.214;2022-07-01T08:56:28;5.20;;;2.58;;
34814;SDS011;21030;53.912;15.214;2022-07-01T08:59:10;4.40;;;2.85;;
34814;SDS011;21030;53.912;15.214;2022-07-01T09:01:39;4.93;;;3.10;;
34814;SDS011;21030;53.912;15.214;2022-07-01T09:06:40;5.47;;;2.85;;
34814;SDS011;21030;53.912;15.214;2022-07-01T09:09:11;7.13;;;4.45;;
34814;SDS011;21030;53.912;15.214;2022-07-01T09:11:47;7.07;;;3.97;;
34814;SDS011;21030;53.912;15.214;2022-07-01T09:14:20;7.28;;;3.17;;
34814;SDS011;21030;53.912;15.214;2022-07-01T09:16:50;4.68;;;2.38;;
34814;SDS011;21030;53.912;15.214;2022-07-01T09:19:19;7.03;;;2.72;;
34814;SDS011;21030;53.912;15.214;2022-07-01T09:21:48;5.43;;;4.03;;
34814;SDS011;21030;53.912;15.214;2022-07-01T09:24:36;7.65;;;2.97;;
34814;SDS011;21030;53.912;15.214;2022-07-01T09:27:07;5.30;;;3.35;;
34814;SDS011;21030;53.912;15.214;2022-07-01T09:29:38;4.28;;;3.00;;
34814;SDS011;21030;53.912;15.214;2022-07-01T09:32:07;6.75;;;3.63;;
34814;SDS011;21030;53.912;15.214;2022-07-01T09:34:43;5.73;;;3.30;;
34814;SDS011;21030;53.912;15.214;2022-07-01T09:37:13;5.95;;;2.63;;
34814;SDS011;21030;53.912;15.214;2022-07-01T09:39:44;15.43;;;3.15;;
34814;SDS011;21030;53.912;15.214;2022-07-01T09:42:14;6.43;;;3.47;;
34814;SDS011;21030;53.912;15.214;2022-07-01T09:47:39;5.90;;;3.05;;
34814;SDS011;21030;53.912;15.214;2022-07-01T09:50:07;6.05;;;3.38;;
34814;SDS011;21030;53.912;15.214;2022-07-01T09:52:35;5.70;;;3.28;;
34814;SDS011;21030;53.912;15.214;2022-07-01T09:55:06;5.22;;;3.38;;
34814;SDS011;21030;53.912;15.214;2022-07-01T09:57:34;5.75;;;3.20;;
34814;SDS011;21030;53.912;15.214;2022-07-01T10:00:03;13.20;;;5.35;;
34814;SDS011;21030;53.912;15.214;2022-07-01T10:02:31;9.38;;;3.97;;
34814;SDS011;21030;53.912;15.214;2022-07-01T10:05:07;6.20;;;4.10;;
34814;SDS011;21030;53.912;15.214;2022-07-01T10:12:54;4.97;;;3.15;;
34814;SDS011;21030;53.912;15.214;2022-07-01T10:15:22;3.83;;;2.38;;
34814;SDS011;21030;53.912;15.214;2022-07-01T10:17:50;3.55;;;2.50;;
34814;SDS011;21030;53.912;15.214;2022-07-01T10:20:24;4.40;;;2.38;;
34814;SDS011;21030;53.912;15.214;2022-07-01T10:23:02;5.55;;;2.72;;
34814;SDS011;21030;53.912;15.214;2022-07-01T10:25:39;6.28;;;3.25;;
34814;SDS011;21030;53.912;15.214;2022-07-01T10:30:53;3.78;;;2.50;;
34814;SDS011;21030;53.912;15.214;2022-07-01T10:33:41;3.70;;;2.63;;
34814;SDS011;21030;53.912;15.214;2022-07-01T10:41:28;5.95;;;3.30;;
34814;SDS011;21030;53.912;15.214;2022-07-01T10:43:57;4.72;;;2.50;;
34814;SDS011;21030;53.912;15.214;2022-07-01T10:52:08;6.13;;;2.58;;
34814;SDS011;21030;53.912;15.214;2022-07-01T10:59:46;9.90;;;6.25;;
34814;SDS011;21030;53.912;15.214;2022-07-01T11:02:21;8.98;;;3.67;;
34814;SDS011;21030;53.912;15.214;2022-07-01T11:04:52;5.68;;;3.40;;
34814;SDS011;21030;53.912;15.214;2022-07-01T11:07:23;5.95;;;3.35;;
34814;SDS011;21030;53.912;15.214;2022-07-01T11:09:52;5.03;;;2.72;;
34814;SDS011;21030;53.912;15.214;2022-07-01T11:12:22;8.63;;;3.33;;
34814;SDS011;21030;53.912;15.214;2022-07-01T11:14:50;4.82;;;2.95;;
34814;SDS011;21030;53.912;15.214;2022-07-01T11:17:19;3.70;;;2.35;;
34814;SDS011;21030;53.912;15.214;2022-07-01T11:19:48;3.35;;;2.30;;
34814;SDS011;21030;53.912;15.214;2022-07-01T11:22:20;5.35;;;2.63;;
34814;SDS011;21030;53.912;15.214;2022-07-01T11:24:52;4.63;;;3.00;;
34814;SDS011;21030;53.912;15.214;2022-07-01T11:27:20;7.13;;;2.33;;
34814;SDS011;21030;53.912;15.214;2022-07-01T11:29:51;4.22;;;2.72;;
34814;SDS011;21030;53.912;15.214;2022-07-01T11:32:29;6.80;;;2.50;;
34814;SDS011;21030;53.912;15.214;2022-07-01T11:35:02;5.57;;;2.22;;
34814;SDS011;21030;53.912;15.214;2022-07-01T11:37:51;4.55;;;2.00;;
34814;SDS011;21030;53.912;15.214;2022-07-01T11:40:38;3.70;;;2.47;;
34814;SDS011;21030;53.912;15.214;2022-07-01T11:43:17;3.65;;;2.10;;
34814;SDS011;21030;53.912;15.214;2022-07-01T11:45:46;4.50;;;2.35;;
34814;SDS011;21030;53.912;15.214;2022-07-01T11:48:27;3.40;;;2.03;;
34814;SDS011;21030;53.912;15.214;2022-07-01T11:51:06;4.50;;;2.30;;
34814;SDS011;21030;53.912;15.214;2022-07-01T11:53:39;4.05;;;2.42;;
34814;SDS011;21030;53.912;15.214;2022-07-01T11:56:08;3.53;;;2.10;;
34814;SDS011;21030;53.912;15.214;2022-07-01T12:01:09;4.97;;;1.90;;
34814;SDS011;21030;53.912;15.214;2022-07-01T12:03:37;3.53;;;2.00;;
34814;SDS011;21030;53.912;15.214;2022-07-01T12:06:04;3.15;;;2.05;;
34814;SDS011;21030;53.912;15.214;2022-07-01T12:08:31;3.10;;;1.55;;
34814;SDS011;21030;53.912;15.214;2022-07-01T12:10:59;3.10;;;1.75;;
34814;SDS011;21030;53.912;15.214;2022-07-01T12:13:26;2.70;;;1.77;;
34814;SDS011;21030;53.912;15.214;2022-07-01T12:16:04;5.10;;;2.13;;
34814;SDS011;21030;53.912;15.214;2022-07-01T12:18:32;2.15;;;1.38;;
34814;SDS011;21030;53.912;15.214;2022-07-01T12:21:00;3.55;;;2.42;;
34814;SDS011;21030;53.912;15.214;2022-07-01T12:23:27;4.10;;;2.25;;
34814;SDS011;21030;53.912;15.214;2022-07-01T12:25:59;3.90;;;2.35;;
34814;SDS011;21030;53.912;15.214;2022-07-01T12:28:31;3.40;;;2.08;;
34814;SDS011;21030;53.912;15.214;2022-07-01T12:31:03;3.42;;;1.80;;
34814;SDS011;21030;53.912;15.214;2022-07-01T12:33:38;3.05;;;2.13;;
34814;SDS011;21030;53.912;15.214;2022-07-01T12:36:14;5.07;;;2.63;;
34814;SDS011;21030;53.912;15.214;2022-07-01T12:38:42;4.03;;;2.35;;
34814;SDS011;21030;53.912;15.214;2022-07-01T12:41:26;4.30;;;2.53;;
34814;SDS011;21030;53.912;15.214;2022-07-01T12:44:05;3.28;;;1.80;;
34814;SDS011;21030;53.912;15.214;2022-07-01T12:46:46;3.97;;;2.15;;
34814;SDS011;21030;53.912;15.214;2022-07-01T12:49:23;3.83;;;2.30;;
34814;SDS011;21030;53.912;15.214;2022-07-01T12:51:52;2.38;;;1.50;;
34814;SDS011;21030;53.912;15.214;2022-07-01T12:54:29;4.65;;;2.38;;
34814;SDS011;21030;53.912;15.214;2022-07-01T12:57:01;2.67;;;1.65;;
34814;SDS011;21030;53.912;15.214;2022-07-01T12:59:28;6.63;;;2.97;;
34814;SDS011;21030;53.912;15.214;2022-07-01T13:01:55;10.55;;;2.45;;
34814;SDS011;21030;53.912;15.214;2022-07-01T13:04:28;3.67;;;1.58;;
34814;SDS011;21030;53.912;15.214;2022-07-01T13:06:57;4.45;;;1.88;;
34814;SDS011;21030;53.912;15.214;2022-07-01T13:09:24;2.22;;;0.95;;
34814;SDS011;21030;53.912;15.214;2022-07-01T13:11:51;2.83;;;1.65;;
34814;SDS011;21030;53.912;15.214;2022-07-01T13:14:18;2.42;;;1.38;;
34814;SDS011;21030;53.912;15.214;2022-07-01T13:16:46;4.38;;;1.73;;
34814;SDS011;21030;53.912;15.214;2022-07-01T13:19:13;4.43;;;1.95;;
34814;SDS011;21030;53.912;15.214;2022-07-01T13:21:40;2.53;;;0.90;;
34814;SDS011;21030;53.912;15.214;2022-07-01T13:24:07;2.20;;;0.98;;
34814;SDS011;21030;53.912;15.214;2022-07-01T13:26:55;5.03;;;1.83;;
34814;SDS011;21030;53.912;15.214;2022-07-01T13:29:22;4.10;;;2.38;;
34814;SDS011;21030;53.912;15.214;2022-07-01T13:32:04;2.40;;;1.70;;
34814;SDS011;21030;53.912;15.214;2022-07-01T13:34:34;1.70;;;0.88;;
34814;SDS011;21030;53.912;15.214;2022-07-01T13:37:01;1.42;;;0.90;;
34814;SDS011;21030;53.912;15.214;2022-07-01T13:39:29;2.25;;;1.08;;
34814;SDS011;21030;53.912;15.214;2022-07-01T13:41:57;4.07;;;2.40;;
34814;SDS011;21030;53.912;15.214;2022-07-01T13:44:24;2.67;;;1.67;;
34814;SDS011;21030;53.912;15.214;2022-07-01T13:46:51;12.00;;;2.50;;
34814;SDS011;21030;53.912;15.214;2022-07-01T13:49:18;2.92;;;1.73;;
34814;SDS011;21030;53.912;15.214;2022-07-01T13:51:45;4.20;;;1.33;;
34814;SDS011;21030;53.912;15.214;2022-07-01T13:54:13;2.22;;;1.40;;
34814;SDS011;21030;53.912;15.214;2022-07-01T13:56:40;2.05;;;1.35;;
34814;SDS011;21030;53.912;15.214;2022-07-01T13:59:08;2.05;;;1.50;;
34814;SDS011;21030;53.912;15.214;2022-07-01T14:01:38;1.67;;;1.20;;
34814;SDS011;21030;53.912;15.214;2022-07-01T14:04:07;1.98;;;1.08;;
34814;SDS011;21030;53.912;15.214;2022-07-01T14:06:34;1.33;;;0.63;;
34814;SDS011;21030;53.912;15.214;2022-07-01T14:09:01;1.48;;;0.52;;
34814;SDS011;21030;53.912;15.214;2022-07-01T14:11:29;1.52;;;0.98;;
34814;SDS011;21030;53.912;15.214;2022-07-01T14:13:56;1.25;;;0.80;;
34814;SDS011;21030;53.912;15.214;2022-07-01T14:16:23;1.35;;;1.02;;
34814;SDS011;21030;53.912;15.214;2022-07-01T14:18:50;2.08;;;1.10;;
34814;SDS011;21030;53.912;15.214;2022-07-01T14:21:18;22.08;;;1.75;;
34814;SDS011;21030;53.912;15.214;2022-07-01T14:23:47;1.27;;;0.80;;
34814;SDS011;21030;53.912;15.214;2022-07-01T17:31:52;2.40;;;1.15;;
34814;SDS011;21030;53.912;15.214;2022-07-01T17:34:28;4.70;;;1.58;;
34814;SDS011;21030;53.912;15.214;2022-07-01T17:36:59;1.80;;;1.10;;
34814;SDS011;21030;53.912;15.214;2022-07-01T17:39:29;2.08;;;1.20;;
34814;SDS011;21030;53.912;15.214;2022-07-01T17:42:05;4.90;;;1.60;;
34814;SDS011;21030;53.912;15.214;2022-07-01T17:44:32;2.08;;;1.33;;
34814;SDS011;21030;53.912;15.214;2022-07-01T17:46:59;1.63;;;1.00;;
34814;SDS011;21030;53.912;15.214;2022-07-01T17:49:29;1.98;;;1.40;;
34814;SDS011;21030;53.912;15.214;2022-07-01T17:51:59;1.60;;;1.05;;
34814;SDS011;21030;53.912;15.214;2022-07-01T17:54:26;8.98;;;1.65;;
34814;SDS011;21030;53.912;15.214;2022-07-01T17:56:56;5.30;;;1.55;;
34814;SDS011;21030;53.912;15.214;2022-07-01T17:59:24;3.38;;;1.83;;
34814;SDS011;21030;53.912;15.214;2022-07-01T18:01:52;3.47;;;1.73;;
34814;SDS011;21030;53.912;15.214;2022-07-01T18:04:23;1.83;;;0.82;;
34814;SDS011;21030;53.912;15.214;2022-07-01T18:06:52;1.60;;;0.98;;
34814;SDS011;21030;53.912;15.214;2022-07-01T18:09:19;3.35;;;2.35;;
34814;SDS011;21030;53.912;15.214;2022-07-01T18:19:45;7.05;;;2.40;;
34814;SDS011;21030;53.912;15.214;2022-07-01T18:22:21;6.13;;;2.55;;
34814;SDS011;21030;53.912;15.214;2022-07-01T18:24:55;2.63;;;1.13;;
34814;SDS011;21030;53.912;15.214;2022-07-01T18:27:25;3.65;;;1.35;;
34814;SDS011;21030;53.912;15.214;2022-07-01T18:29:55;4.13;;;2.00;;